createdAt,value
2022-11-06T00:00:50.901Z,6.00
2022-11-06T00:01:51.085Z,5.90
2022-11-06T00:02:50.922Z,5.89
2022-11-06T00:03:50.960Z,5.86
2022-11-06T00:04:50.898Z,5.85
2022-11-06T00:05:52.060Z,5.82
2022-11-06T00:06:50.802Z,5.80
2022-11-06T00:07:52.010Z,5.74
2022-11-06T00:08:50.788Z,5.69
2022-11-06T00:09:50.930Z,5.64
2022-11-06T00:10:50.888Z,5.58
2022-11-06T00:11:50.908Z,5.58
2022-11-06T00:12:50.898Z,5.54
2022-11-06T00:13:50.969Z,5.53
2022-11-06T00:14:50.859Z,5.51
2022-11-06T00:15:50.729Z,5.53
2022-11-06T00:16:50.768Z,5.57
2022-11-06T00:17:51.628Z,5.58
2022-11-06T00:18:50.948Z,5.58
2022-11-06T00:19:51.829Z,5.50
2022-11-06T00:20:50.778Z,5.46
2022-11-06T00:21:51.649Z,5.42
2022-11-06T00:22:51.888Z,5.42
2022-11-06T00:23:51.627Z,5.42
2022-11-06T00:24:50.740Z,5.46
2022-11-06T00:25:51.708Z,5.57
2022-11-06T00:26:54.350Z,5.71
2022-11-06T00:27:50.727Z,5.86
2022-11-06T00:29:10.289Z,6.01
2022-11-06T00:29:50.659Z,6.10
2022-11-06T00:30:50.719Z,6.18
2022-11-06T00:31:50.766Z,6.29
2022-11-06T00:32:50.612Z,6.37
2022-11-06T00:33:50.649Z,6.38
2022-11-06T00:34:50.540Z,6.39
2022-11-06T00:35:50.710Z,6.41
2022-11-06T00:36:50.439Z,6.45
2022-11-06T00:37:50.660Z,6.48
2022-11-06T00:38:50.479Z,6.52
2022-11-06T00:39:50.640Z,6.57
2022-11-06T00:40:50.460Z,6.66
2022-11-06T00:41:50.602Z,6.73
2022-11-06T00:42:50.450Z,6.71
2022-11-06T00:43:50.551Z,6.73
2022-11-06T00:44:50.540Z,6.73
2022-11-06T00:45:50.602Z,6.71
2022-11-06T00:46:50.570Z,6.65
2022-11-06T00:47:50.320Z,6.59
2022-11-06T00:48:50.512Z,6.49
2022-11-06T00:49:50.419Z,6.39
2022-11-06T00:50:50.551Z,6.30
2022-11-06T00:51:50.320Z,6.19
2022-11-06T00:52:50.509Z,6.10
2022-11-06T00:53:50.330Z,6.03
2022-11-06T00:54:50.530Z,5.98
2022-11-06T00:55:50.420Z,5.86
2022-11-06T00:56:49.640Z,5.82
2022-11-06T00:57:50.346Z,5.79
2022-11-06T00:58:50.394Z,5.72
2022-11-06T00:59:50.540Z,5.68
2022-11-06T01:00:50.501Z,5.65
2022-11-06T01:01:50.557Z,5.64
2022-11-06T01:02:50.596Z,5.58
2022-11-06T01:03:51.441Z,5.58
2022-11-06T01:04:50.121Z,5.54
2022-11-06T01:05:50.420Z,5.51
2022-11-06T01:06:51.371Z,5.47
2022-11-06T01:07:51.361Z,5.44
2022-11-06T01:08:51.190Z,5.42
2022-11-06T01:09:51.401Z,5.28
2022-11-06T01:10:50.291Z,5.14
2022-11-06T01:12:12.441Z,5.17
2022-11-06T01:12:50.401Z,5.13
2022-11-06T01:13:51.322Z,4.95
2022-11-06T01:14:50.180Z,4.73
2022-11-06T01:15:50.371Z,4.59
2022-11-06T01:16:50.192Z,4.55
2022-11-06T01:17:50.280Z,4.48
2022-11-06T01:18:50.140Z,4.48
2022-11-06T01:19:50.060Z,4.53
2022-11-06T01:20:50.260Z,4.59
2022-11-06T01:21:49.961Z,4.64
2022-11-06T01:22:50.161Z,4.67
2022-11-06T01:23:50.100Z,4.71
2022-11-06T01:24:51.205Z,4.74
2022-11-06T01:25:50.012Z,4.76
2022-11-06T01:27:12.534Z,4.77
2022-11-06T01:27:50.831Z,4.77
2022-11-06T01:28:50.142Z,4.83
2022-11-06T01:29:51.001Z,4.89
2022-11-06T01:30:51.295Z,4.90
2022-11-06T01:31:50.081Z,4.96
2022-11-06T01:32:50.071Z,5.06
2022-11-06T01:33:50.022Z,5.06
2022-11-06T01:34:50.061Z,5.04
2022-11-06T01:35:50.972Z,5.06
2022-11-06T01:36:49.872Z,5.03
2022-11-06T01:37:51.133Z,4.96
2022-11-06T01:38:49.873Z,4.95
2022-11-06T01:39:51.028Z,4.96
2022-11-06T01:40:50.829Z,4.98
2022-11-06T01:41:51.020Z,4.93
2022-11-06T01:42:49.881Z,4.90
2022-11-06T01:43:50.971Z,4.95
2022-11-06T01:44:50.911Z,4.90
2022-11-06T01:45:50.992Z,4.89
2022-11-06T01:46:49.841Z,4.88
2022-11-06T01:47:49.932Z,4.88
2022-11-06T01:48:51.001Z,4.86
2022-11-06T01:49:50.960Z,4.89
2022-11-06T01:50:50.838Z,4.80
2022-11-06T01:51:50.660Z,4.93
2022-11-06T01:52:50.830Z,5.13
2022-11-06T01:53:50.643Z,5.19
2022-11-06T01:54:50.881Z,5.32
2022-11-06T01:55:49.731Z,5.42
2022-11-06T01:56:50.880Z,5.47
2022-11-06T01:57:50.661Z,5.49
2022-11-06T01:58:49.850Z,5.50
2022-11-06T01:59:50.721Z,5.50
2022-11-06T02:00:50.026Z,5.50
2022-11-06T02:01:50.530Z,5.49
2022-11-06T02:02:49.967Z,5.57
2022-11-06T02:03:49.661Z,5.68
2022-11-06T02:04:49.802Z,5.77
2022-11-06T02:05:49.741Z,5.83
2022-11-06T02:06:49.770Z,6.01
2022-11-06T02:07:49.786Z,6.07
2022-11-06T02:08:49.581Z,6.22
2022-11-06T02:09:49.641Z,6.19
2022-11-06T02:10:49.580Z,6.26
2022-11-06T02:11:49.681Z,6.44
2022-11-06T02:12:49.521Z,6.48
2022-11-06T02:13:49.750Z,6.53
2022-11-06T02:14:49.720Z,6.55
2022-11-06T02:15:49.740Z,6.49
2022-11-06T02:16:49.529Z,6.55
2022-11-06T02:17:49.691Z,6.52
2022-11-06T02:18:49.560Z,6.52
2022-11-06T02:19:49.591Z,6.59
2022-11-06T02:20:49.480Z,6.59
2022-11-06T02:21:49.642Z,6.60
2022-11-06T02:22:49.520Z,6.63
2022-11-06T02:23:49.330Z,6.66
2022-11-06T02:24:49.489Z,6.62
2022-11-06T02:25:49.490Z,6.65
2022-11-06T02:26:49.511Z,6.66
2022-11-06T02:27:49.440Z,6.63
2022-11-06T02:28:49.499Z,6.71
2022-11-06T02:29:49.359Z,6.73
2022-11-06T02:30:49.521Z,6.70
2022-11-06T02:31:49.419Z,6.65
2022-11-06T02:32:49.487Z,6.56
2022-11-06T02:33:49.381Z,6.49
2022-11-06T02:34:49.479Z,6.48
2022-11-06T02:35:49.354Z,6.49
2022-11-06T02:36:49.490Z,6.55
2022-11-06T02:37:49.429Z,6.47
2022-11-06T02:38:49.557Z,6.49
2022-11-06T02:39:49.339Z,6.52
2022-11-06T02:40:49.289Z,6.52
2022-11-06T02:41:49.459Z,6.47
2022-11-06T02:42:49.218Z,6.48
2022-11-06T02:43:49.949Z,6.48
2022-11-06T02:44:49.211Z,6.48
2022-11-06T02:45:49.311Z,6.49
2022-11-06T02:46:49.289Z,6.53
2022-11-06T02:47:49.489Z,6.52
2022-11-06T02:48:49.231Z,6.65
2022-11-06T02:49:49.369Z,6.73
2022-11-06T02:50:49.220Z,6.75
2022-11-06T02:51:49.818Z,6.66
2022-11-06T02:52:49.299Z,6.65
2022-11-06T02:53:49.329Z,6.73
2022-11-06T02:54:49.261Z,6.77
2022-11-06T02:55:49.120Z,6.83
2022-11-06T02:56:49.188Z,6.78
2022-11-06T02:57:49.028Z,6.77
2022-11-06T02:58:49.434Z,6.81
2022-11-06T02:59:49.039Z,6.77
2022-11-06T03:00:49.198Z,6.73
2022-11-06T03:01:49.272Z,6.70
2022-11-06T03:02:49.435Z,6.66
2022-11-06T03:03:48.369Z,6.56
2022-11-06T03:04:49.239Z,6.48
2022-11-06T03:05:49.039Z,6.53
2022-11-06T03:06:49.282Z,6.56
2022-11-06T03:07:48.979Z,6.45
2022-11-06T03:08:49.169Z,6.52
2022-11-06T03:09:50.110Z,6.56
2022-11-06T03:10:49.100Z,6.62
2022-11-06T03:11:49.080Z,6.57
2022-11-06T03:12:48.888Z,6.56
2022-11-06T03:13:49.018Z,6.63
2022-11-06T03:14:48.959Z,6.73
2022-11-06T03:15:49.189Z,6.85
2022-11-06T03:16:48.861Z,6.81
2022-11-06T03:17:49.000Z,6.89
2022-11-06T03:18:48.899Z,6.88
2022-11-06T03:19:48.988Z,6.83
2022-11-06T03:20:48.958Z,6.80
2022-11-06T03:21:48.970Z,6.77
2022-11-06T03:22:48.819Z,6.78
2022-11-06T03:23:48.948Z,6.81
2022-11-06T03:24:48.859Z,6.83
2022-11-06T03:25:49.019Z,6.89
2022-11-06T03:26:48.977Z,6.91
2022-11-06T03:27:48.758Z,6.89
2022-11-06T03:28:48.889Z,6.81
2022-11-06T03:29:48.819Z,6.66
2022-11-06T03:30:49.008Z,6.59
2022-11-06T03:31:48.682Z,6.48
2022-11-06T03:32:48.989Z,6.37
2022-11-06T03:33:48.739Z,6.27
2022-11-06T03:34:48.853Z,6.24
2022-11-06T03:35:48.752Z,6.24
2022-11-06T03:36:48.819Z,6.27
2022-11-06T03:37:48.679Z,6.34
2022-11-06T03:38:49.029Z,6.18
2022-11-06T03:39:48.708Z,6.11
2022-11-06T03:40:48.779Z,6.08
2022-11-06T03:41:48.769Z,6.05
2022-11-06T03:42:48.799Z,6.11
2022-11-06T03:43:48.708Z,6.10
2022-11-06T03:44:48.562Z,6.24
2022-11-06T03:45:48.690Z,6.13
2022-11-06T03:46:48.609Z,6.04
2022-11-06T03:47:48.970Z,6.11
2022-11-06T03:48:48.540Z,6.19
2022-11-06T03:49:48.749Z,5.98
2022-11-06T03:50:48.599Z,5.74
2022-11-06T03:51:48.720Z,5.61
2022-11-06T03:52:48.609Z,5.22
2022-11-06T03:53:48.694Z,4.93
2022-11-06T03:54:48.578Z,4.85
2022-11-06T03:55:48.669Z,4.86
2022-11-06T03:56:48.532Z,4.79
2022-11-06T03:57:48.835Z,4.67
2022-11-06T03:58:48.783Z,4.61
2022-11-06T03:59:48.470Z,4.61
2022-11-06T04:00:48.539Z,4.64
2022-11-06T04:01:49.527Z,4.61
2022-11-06T04:02:49.871Z,4.64
2022-11-06T04:03:49.490Z,4.63
2022-11-06T04:04:49.749Z,4.59
2022-11-06T04:05:48.399Z,4.56
2022-11-06T04:06:49.660Z,4.56
2022-11-06T04:07:49.559Z,4.55
2022-11-06T04:08:49.661Z,4.58
2022-11-06T04:09:49.419Z,4.63
2022-11-06T04:10:49.670Z,4.63
2022-11-06T04:11:49.440Z,4.64
2022-11-06T04:12:49.441Z,4.66
2022-11-06T04:13:48.500Z,4.69
2022-11-06T04:14:48.280Z,4.69
2022-11-06T04:15:48.409Z,4.70
2022-11-06T04:16:49.429Z,4.69
2022-11-06T04:17:48.431Z,4.64
2022-11-06T04:18:49.359Z,4.56
2022-11-06T04:19:48.501Z,4.70
2022-11-06T04:20:48.209Z,4.83
2022-11-06T04:21:48.450Z,4.89
2022-11-06T04:22:48.274Z,4.85
2022-11-06T04:23:48.391Z,4.56
2022-11-06T04:24:48.330Z,4.38
2022-11-06T04:25:48.360Z,4.08
2022-11-06T04:26:49.330Z,3.82
2022-11-06T04:27:48.349Z,3.65
2022-11-06T04:28:48.220Z,3.62
2022-11-06T04:29:47.499Z,3.64
2022-11-06T04:30:48.321Z,3.70
2022-11-06T04:31:49.330Z,3.74
2022-11-06T04:32:48.491Z,3.79
2022-11-06T04:33:47.460Z,3.80
2022-11-06T04:34:48.240Z,3.80
2022-11-06T04:35:48.299Z,3.82
2022-11-06T04:36:48.294Z,3.80
2022-11-06T04:37:47.420Z,3.80
2022-11-06T04:38:48.180Z,3.74
2022-11-06T04:39:47.399Z,3.73
2022-11-06T04:40:49.250Z,3.74
2022-11-06T04:41:49.110Z,3.74
2022-11-06T04:42:48.180Z,3.76
2022-11-06T04:43:48.062Z,3.80
2022-11-06T04:44:48.140Z,3.79
2022-11-06T04:45:47.336Z,3.77
2022-11-06T04:46:47.990Z,3.79
2022-11-06T04:47:49.082Z,3.83
2022-11-06T04:48:47.291Z,3.84
2022-11-06T04:49:49.092Z,3.84
2022-11-06T04:50:47.959Z,3.84
2022-11-06T04:51:48.140Z,3.84
2022-11-06T04:52:47.941Z,3.74
2022-11-06T04:53:47.400Z,3.73
2022-11-06T04:54:47.931Z,3.59
2022-11-06T04:55:48.659Z,3.46
2022-11-06T04:56:47.269Z,3.36
2022-11-06T04:57:48.220Z,3.44
2022-11-06T04:58:48.686Z,3.48
2022-11-06T04:59:47.321Z,3.56
2022-11-06T05:00:47.991Z,3.58
2022-11-06T05:01:48.016Z,3.64
2022-11-06T05:02:47.200Z,3.70
2022-11-06T05:03:48.470Z,3.70
2022-11-06T05:04:47.332Z,3.68
2022-11-06T05:05:47.130Z,3.66
2022-11-06T05:06:47.880Z,3.48
2022-11-06T05:07:47.874Z,3.29
2022-11-06T05:08:47.091Z,3.18
2022-11-06T05:09:47.792Z,3.14
2022-11-06T05:10:47.903Z,3.14
2022-11-06T05:11:47.820Z,3.19
2022-11-06T05:12:47.901Z,3.22
2022-11-06T05:13:47.741Z,3.21
2022-11-06T05:14:47.040Z,3.18
2022-11-06T05:15:48.410Z,3.06
2022-11-06T05:16:47.302Z,3.06
2022-11-06T05:17:47.000Z,3.10
2022-11-06T05:18:48.570Z,3.15
2022-11-06T05:19:47.401Z,3.14
2022-11-06T05:20:47.590Z,3.17
2022-11-06T05:21:47.952Z,3.21
2022-11-06T05:22:46.940Z,3.25
2022-11-06T05:23:47.851Z,3.29
2022-11-06T05:24:46.936Z,3.25
2022-11-06T05:25:47.690Z,3.28
2022-11-06T05:26:46.910Z,3.32
2022-11-06T05:27:48.541Z,3.35
2022-11-06T05:28:47.290Z,3.35
2022-11-06T05:29:46.930Z,3.36
2022-11-06T05:30:47.664Z,3.41
2022-11-06T05:31:47.757Z,3.40
2022-11-06T05:32:47.701Z,3.40
2022-11-06T05:33:48.441Z,3.40
2022-11-06T05:34:48.741Z,3.36
2022-11-06T05:35:47.589Z,3.35
2022-11-06T05:36:48.584Z,3.36
2022-11-06T05:37:47.659Z,3.43
2022-11-06T05:38:48.820Z,3.46
2022-11-06T05:39:47.533Z,3.44
2022-11-06T05:40:46.831Z,3.48
2022-11-06T05:41:47.420Z,3.51
2022-11-06T05:42:48.601Z,3.55
2022-11-06T05:43:47.405Z,3.59
2022-11-06T05:44:46.790Z,3.65
2022-11-06T05:45:48.401Z,3.62
2022-11-06T05:46:49.075Z,3.59
2022-11-06T05:47:47.422Z,3.52
2022-11-06T05:48:47.571Z,3.47
2022-11-06T05:49:47.440Z,3.43
2022-11-06T05:50:46.710Z,3.32
2022-11-06T05:51:48.151Z,3.37
2022-11-06T05:52:46.962Z,3.46
2022-11-06T05:53:48.451Z,3.54
2022-11-06T05:54:46.630Z,3.61
2022-11-06T05:55:48.055Z,3.61
2022-11-06T05:56:47.080Z,3.68
2022-11-06T05:57:47.791Z,3.73
2022-11-06T05:58:47.292Z,3.76
2022-11-06T05:59:46.581Z,3.80
2022-11-06T06:00:47.991Z,3.86
2022-11-06T06:01:47.004Z,3.90
2022-11-06T06:02:47.315Z,3.95
2022-11-06T06:03:47.524Z,3.98
2022-11-06T06:04:47.252Z,4.01
2022-11-06T06:05:48.231Z,4.08
2022-11-06T06:06:47.271Z,4.09
2022-11-06T06:07:48.250Z,4.16
2022-11-06T06:08:48.292Z,4.19
2022-11-06T06:09:48.171Z,4.15
2022-11-06T06:10:48.300Z,4.15
2022-11-06T06:11:47.180Z,4.15
2022-11-06T06:12:48.331Z,4.16
2022-11-06T06:13:46.491Z,4.16
2022-11-06T06:14:50.536Z,4.18
2022-11-06T06:15:47.170Z,4.19
2022-11-06T06:16:47.281Z,4.23
2022-11-06T06:17:47.221Z,4.20
2022-11-06T06:18:47.391Z,4.22
2022-11-06T06:19:47.431Z,4.20
2022-11-06T06:20:47.311Z,4.22
2022-11-06T06:21:47.521Z,4.26
2022-11-06T06:22:46.941Z,4.28
2022-11-06T06:23:48.272Z,4.30
2022-11-06T06:24:47.243Z,4.31
2022-11-06T06:25:48.120Z,4.35
2022-11-06T06:26:47.021Z,4.38
2022-11-06T06:27:47.182Z,4.43
2022-11-06T06:28:47.061Z,4.43
2022-11-06T06:29:47.085Z,4.45
2022-11-06T06:30:47.391Z,4.37
2022-11-06T06:31:48.181Z,4.41
2022-11-06T06:32:47.992Z,4.45
2022-11-06T06:33:48.063Z,4.48
2022-11-06T06:34:48.052Z,4.53
2022-11-06T06:35:48.208Z,4.51
2022-11-06T06:36:47.001Z,4.58
2022-11-06T06:37:46.869Z,4.67
2022-11-06T06:38:47.971Z,4.53
2022-11-06T06:39:47.839Z,4.48
2022-11-06T06:40:47.930Z,4.41
2022-11-06T06:41:46.941Z,4.43
2022-11-06T06:42:46.950Z,4.46
2022-11-06T06:43:47.900Z,4.43
2022-11-06T06:44:46.941Z,4.34
2022-11-06T06:45:48.321Z,4.31
2022-11-06T06:46:47.481Z,4.26
2022-11-06T06:47:46.811Z,4.22
2022-11-06T06:48:46.950Z,4.41
2022-11-06T06:49:46.791Z,4.38
2022-11-06T06:50:46.930Z,4.33
2022-11-06T06:51:47.781Z,4.33
2022-11-06T06:52:47.681Z,4.45
2022-11-06T06:53:47.901Z,4.63
2022-11-06T06:54:46.900Z,4.76
2022-11-06T06:55:46.021Z,4.85
2022-11-06T06:56:46.625Z,4.92
2022-11-06T06:57:46.830Z,5.04
2022-11-06T06:58:46.770Z,5.07
2022-11-06T06:59:46.760Z,5.03
2022-11-06T07:00:46.740Z,5.06
2022-11-06T07:01:47.847Z,5.13
2022-11-06T07:02:46.621Z,5.31
2022-11-06T07:03:45.972Z,5.42
2022-11-06T07:04:47.711Z,5.59
2022-11-06T07:05:47.716Z,5.74
2022-11-06T07:06:46.661Z,6.01
2022-11-06T07:07:46.730Z,6.21
2022-11-06T07:08:46.631Z,6.44
2022-11-06T07:09:45.941Z,6.60
2022-11-06T07:10:46.640Z,6.91
2022-11-06T07:11:47.241Z,7.05
2022-11-06T07:12:47.700Z,7.26
2022-11-06T07:13:47.530Z,7.34
2022-11-06T07:14:46.702Z,7.41
2022-11-06T07:15:46.550Z,7.35
2022-11-06T07:16:51.082Z,7.49
2022-11-06T07:17:46.480Z,7.59
2022-11-06T07:18:47.790Z,7.59
2022-11-06T07:19:46.501Z,7.49
2022-11-06T07:20:46.721Z,7.50
2022-11-06T07:21:47.651Z,7.57
2022-11-06T07:22:47.523Z,7.38
2022-11-06T07:23:46.503Z,7.35
2022-11-06T07:24:47.370Z,7.31
2022-11-06T07:25:47.560Z,7.39
2022-11-06T07:26:46.291Z,7.53
2022-11-06T07:27:47.461Z,7.59
2022-11-06T07:28:46.340Z,7.73
2022-11-06T07:29:47.510Z,7.86
2022-11-06T07:30:46.401Z,7.93
2022-11-06T07:31:46.584Z,8.11
2022-11-06T07:32:47.380Z,8.09
2022-11-06T07:33:47.471Z,8.12
2022-11-06T07:34:46.310Z,8.20
2022-11-06T07:35:46.460Z,8.18
2022-11-06T07:36:47.380Z,7.90
2022-11-06T07:37:46.440Z,7.60
2022-11-06T07:38:46.350Z,7.66
2022-11-06T07:39:46.140Z,7.59
2022-11-06T07:40:46.350Z,7.53
2022-11-06T08:18:06.723Z,8.62
2022-11-06T08:19:29.463Z,8.49
2022-11-06T08:20:07.135Z,8.20
2022-11-06T08:21:07.184Z,8.05
2022-11-06T08:22:06.965Z,7.87
2022-11-06T08:23:07.164Z,8.15
2022-11-06T08:24:07.133Z,8.20
2022-11-06T08:25:07.097Z,8.18
2022-11-06T08:26:07.062Z,8.36
2022-11-06T08:27:07.093Z,8.38
2022-11-06T08:28:06.953Z,8.20
2022-11-06T08:29:07.093Z,8.24
2022-11-06T08:30:07.003Z,8.33
2022-11-06T08:31:07.023Z,8.31
2022-11-06T08:32:28.794Z,8.47
2022-11-06T08:33:07.005Z,8.54
2022-11-06T08:34:07.003Z,8.34
2022-11-06T08:35:06.804Z,7.87
2022-11-06T08:36:28.974Z,7.70
2022-11-06T08:37:06.783Z,8.06
2022-11-06T08:38:06.955Z,8.59
2022-11-06T08:39:06.785Z,8.88
2022-11-06T08:40:06.974Z,8.82
2022-11-06T08:41:07.504Z,8.93
2022-11-06T08:42:07.092Z,8.63
2022-11-06T08:43:06.804Z,8.77
2022-11-06T08:44:06.903Z,8.95
2022-11-06T08:45:28.477Z,9.08
2022-11-06T08:46:07.083Z,9.02
2022-11-06T08:47:07.213Z,8.85
2022-11-06T08:48:07.882Z,8.77
2022-11-06T08:49:07.893Z,8.87
2022-11-06T08:50:07.713Z,8.95
2022-11-06T08:51:06.844Z,9.08
2022-11-06T08:52:07.304Z,9.14
2022-11-06T08:53:07.880Z,9.42
2022-11-06T08:54:07.736Z,9.55
2022-11-06T08:55:06.903Z,9.67
2022-11-06T08:56:06.725Z,9.65
2022-11-06T08:57:06.804Z,9.61
2022-11-06T08:58:06.683Z,9.85
2022-11-06T08:59:06.764Z,9.97
2022-11-06T09:00:06.684Z,9.98
2022-11-06T09:01:06.802Z,9.90
2022-11-06T09:02:06.645Z,10.23
2022-11-06T09:03:06.715Z,10.82
2022-11-06T09:04:06.624Z,11.35
2022-11-06T09:05:06.644Z,12.03
2022-11-06T09:06:06.663Z,12.35
2022-11-06T09:07:06.553Z,12.90
2022-11-06T09:08:06.609Z,12.78
2022-11-06T09:09:05.814Z,12.40
2022-11-06T09:10:06.704Z,12.39
2022-11-06T09:11:06.495Z,13.52
2022-11-06T09:12:06.654Z,13.67
2022-11-06T09:13:06.523Z,13.67
2022-11-06T09:14:06.664Z,13.67
2022-11-06T09:15:06.477Z,14.28
2022-11-06T09:16:10.160Z,14.33
2022-11-06T09:17:06.554Z,14.29
2022-11-06T09:18:06.543Z,13.57
2022-11-06T09:19:06.575Z,13.13
2022-11-06T09:20:06.343Z,13.39
2022-11-06T09:21:06.505Z,13.39
2022-11-06T09:22:06.424Z,13.49
2022-11-06T09:23:06.584Z,13.96
2022-11-06T09:24:06.374Z,14.29
2022-11-06T09:25:06.424Z,14.55
2022-11-06T09:26:06.343Z,15.64
2022-11-06T09:27:06.420Z,16.62
2022-11-06T09:28:06.314Z,17.53
2022-11-06T09:29:06.514Z,18.07
2022-11-06T09:30:06.293Z,18.46
2022-11-06T09:31:06.435Z,18.43
2022-11-06T09:32:06.383Z,18.38
2022-11-06T09:33:12.149Z,18.59
2022-11-06T09:34:07.174Z,18.99
2022-11-06T09:35:06.143Z,19.33
2022-11-06T09:36:06.343Z,19.45
2022-11-06T09:37:06.144Z,19.15
2022-11-06T09:38:06.335Z,19.11
2022-11-06T09:39:06.153Z,19.09
2022-11-06T09:40:06.868Z,19.07
2022-11-06T09:41:06.215Z,19.23
2022-11-06T09:42:06.384Z,19.60
2022-11-06T09:43:06.223Z,19.51
2022-11-06T09:44:06.591Z,19.64
2022-11-06T09:45:06.204Z,20.06
2022-11-06T09:46:06.354Z,20.24
2022-11-06T09:47:27.744Z,20.52
2022-11-06T09:48:06.203Z,20.82
2022-11-06T09:49:06.149Z,20.97
2022-11-06T09:50:05.973Z,20.63
2022-11-06T09:51:27.773Z,21.30
2022-11-06T09:52:06.008Z,21.61
2022-11-06T09:53:06.458Z,21.66
2022-11-06T09:54:06.033Z,21.58
2022-11-06T09:55:06.383Z,21.47
2022-11-06T09:56:06.083Z,21.61
2022-11-06T09:57:06.174Z,22.15
2022-11-06T09:58:05.983Z,21.82
2022-11-06T09:59:06.075Z,21.88
2022-11-06T10:00:05.285Z,21.74
2022-11-06T10:01:06.152Z,21.43
2022-11-06T10:02:06.138Z,21.51
2022-11-06T10:03:06.308Z,21.73
2022-11-06T10:04:06.016Z,22.19
2022-11-06T10:05:05.844Z,22.54
2022-11-06T10:06:05.994Z,21.37
2022-11-06T10:07:05.816Z,20.87
2022-11-06T10:08:06.055Z,20.67
2022-11-06T10:09:05.934Z,19.71
2022-11-06T10:10:06.194Z,20.37
2022-11-06T10:11:05.883Z,20.90
2022-11-06T10:12:05.965Z,21.10
2022-11-06T10:13:05.863Z,20.78
2022-11-06T10:14:06.044Z,21.08
2022-11-06T10:15:05.924Z,21.35
2022-11-06T10:16:05.925Z,21.52
2022-11-06T10:17:05.863Z,22.10
2022-11-06T10:18:06.094Z,21.70
2022-11-06T10:19:05.934Z,21.59
2022-11-06T10:20:05.704Z,22.15
2022-11-06T10:21:05.977Z,22.59
2022-11-06T10:22:05.053Z,22.78
2022-11-06T10:23:05.900Z,21.27
2022-11-06T10:24:05.733Z,22.29
2022-11-06T10:25:27.044Z,22.68
2022-11-06T10:26:06.705Z,21.96
2022-11-06T10:27:05.913Z,20.82
2022-11-06T10:28:05.723Z,21.37
2022-11-06T10:29:05.753Z,21.12
2022-11-06T10:30:27.513Z,20.50
2022-11-06T10:31:05.854Z,19.79
2022-11-06T10:32:05.856Z,20.06
2022-11-06T10:33:26.933Z,20.17
2022-11-06T10:34:05.726Z,19.29
2022-11-06T10:35:05.543Z,19.05
2022-11-06T10:36:05.726Z,19.56
2022-11-06T10:37:05.594Z,19.89
2022-11-06T10:38:05.774Z,20.50
2022-11-06T10:39:05.553Z,20.66
2022-11-06T10:40:05.713Z,20.77
2022-11-06T10:41:05.573Z,20.33
2022-11-06T10:42:05.707Z,20.00
2022-11-06T10:43:05.495Z,20.10
2022-11-06T10:44:05.733Z,20.01
2022-11-06T10:45:05.502Z,19.45
2022-11-06T10:46:05.583Z,18.19
2022-11-06T10:47:05.564Z,17.51
2022-11-06T10:48:04.783Z,16.36
2022-11-06T10:49:05.613Z,15.40
2022-11-06T10:50:05.388Z,14.58
2022-11-06T10:51:05.554Z,14.15
2022-11-06T10:52:05.423Z,13.97
2022-11-06T10:53:05.664Z,14.22
2022-11-06T10:54:05.386Z,14.19
2022-11-06T10:55:05.573Z,14.38
2022-11-06T10:56:10.648Z,14.36
2022-11-06T10:57:05.495Z,14.44
2022-11-06T10:58:05.383Z,14.07
2022-11-06T10:59:05.494Z,14.15
2022-11-06T11:00:05.504Z,14.10
2022-11-06T11:01:05.577Z,14.04
2022-11-06T11:02:05.726Z,13.70
2022-11-06T11:03:05.394Z,13.18
2022-11-06T11:04:05.372Z,13.09
2022-11-06T11:05:05.293Z,13.16
2022-11-06T11:06:05.396Z,13.33
2022-11-06T11:07:05.253Z,13.24
2022-11-06T11:08:04.593Z,13.35
2022-11-06T11:09:05.323Z,13.46
2022-11-06T11:10:05.454Z,13.53
2022-11-06T11:11:05.828Z,13.43
2022-11-06T11:12:06.558Z,13.56
2022-11-06T11:13:08.356Z,13.46
2022-11-06T11:14:05.493Z,13.46
2022-11-06T11:15:06.244Z,13.43
2022-11-06T11:16:05.263Z,13.64
2022-11-06T11:17:05.363Z,13.71
2022-11-06T11:18:05.275Z,13.78
2022-11-06T11:19:05.194Z,13.89
2022-11-06T11:20:05.035Z,13.88
2022-11-06T11:21:05.193Z,13.80
2022-11-06T11:22:04.953Z,13.72
2022-11-06T11:23:05.614Z,13.65
2022-11-06T11:24:05.880Z,13.59
2022-11-06T11:25:05.234Z,13.55
2022-11-06T11:26:05.035Z,13.57
2022-11-06T11:27:05.235Z,13.71
2022-11-06T11:28:05.212Z,13.70
2022-11-06T11:29:04.344Z,13.53
2022-11-06T11:30:05.025Z,13.46
2022-11-06T11:31:05.266Z,13.35
2022-11-06T11:32:05.193Z,13.21
2022-11-06T11:33:05.324Z,13.00
2022-11-06T11:34:05.066Z,12.90
2022-11-06T11:35:05.935Z,12.80
2022-11-06T11:36:05.013Z,12.68
2022-11-06T11:37:04.517Z,12.79
2022-11-06T11:38:06.315Z,12.87
2022-11-06T11:39:05.033Z,12.82
2022-11-06T11:40:08.517Z,12.76
2022-11-06T11:41:04.214Z,12.60
2022-11-06T11:42:06.344Z,12.68
2022-11-06T11:43:05.353Z,12.53
2022-11-06T11:44:05.196Z,12.36
2022-11-06T11:45:04.904Z,12.36
2022-11-06T11:46:05.094Z,12.32
2022-11-06T11:47:09.111Z,12.24
2022-11-06T11:48:05.034Z,12.24
2022-11-06T11:49:05.033Z,12.46
2022-11-06T11:50:04.713Z,12.55
2022-11-06T11:51:04.913Z,12.76
2022-11-06T11:52:04.775Z,12.87
2022-11-06T11:53:09.884Z,12.98
2022-11-06T11:54:04.823Z,13.08
2022-11-06T11:55:04.944Z,13.15
2022-11-06T11:56:04.893Z,13.22
2022-11-06T11:57:06.056Z,13.27
2022-11-06T11:58:04.735Z,13.29
2022-11-06T11:59:04.833Z,13.22
2022-11-06T12:00:04.783Z,13.15
2022-11-06T12:01:03.994Z,12.85
2022-11-06T12:02:04.950Z,12.83
2022-11-06T12:03:04.864Z,12.90
2022-11-06T12:04:04.755Z,12.94
2022-11-06T12:05:04.643Z,12.93
2022-11-06T12:06:04.814Z,12.91
2022-11-06T12:07:04.615Z,12.90
2022-11-06T12:08:04.743Z,12.88
2022-11-06T12:09:04.615Z,12.90
2022-11-06T12:10:04.723Z,12.94
2022-11-06T12:11:04.733Z,12.98
2022-11-06T12:12:04.733Z,12.93
2022-11-06T12:13:03.873Z,12.88
2022-11-06T12:14:04.877Z,12.85
2022-11-06T12:15:04.663Z,12.85
2022-11-06T12:16:04.694Z,12.80
2022-11-06T12:17:05.712Z,12.83
2022-11-06T12:18:04.633Z,12.85
2022-11-06T12:19:05.593Z,12.79
2022-11-06T12:20:04.532Z,12.80
2022-11-06T12:21:04.543Z,12.80
2022-11-06T12:22:04.563Z,12.82
2022-11-06T12:23:04.663Z,12.82
2022-11-06T12:24:04.605Z,12.83
2022-11-06T12:25:04.613Z,12.82
2022-11-06T12:26:04.404Z,12.83
2022-11-06T12:27:04.582Z,12.88
2022-11-06T12:28:05.513Z,12.80
2022-11-06T12:29:05.652Z,12.83
2022-11-06T12:30:04.413Z,12.82
2022-11-06T12:31:04.573Z,12.87
2022-11-06T12:32:04.562Z,12.94
2022-11-06T12:33:05.503Z,12.98
2022-11-06T12:34:07.101Z,12.98
2022-11-06T12:35:04.284Z,13.00
2022-11-06T12:36:05.413Z,12.94
2022-11-06T12:37:04.273Z,12.90
2022-11-06T12:38:04.547Z,12.80
2022-11-06T12:39:05.333Z,12.76
2022-11-06T12:40:04.354Z,12.68
2022-11-06T12:41:04.303Z,12.50
2022-11-06T12:42:05.455Z,12.38
2022-11-06T12:43:04.331Z,12.30
2022-11-06T12:44:04.352Z,12.24
2022-11-06T12:45:04.254Z,12.25
2022-11-06T12:46:04.522Z,12.17
2022-11-06T12:47:04.372Z,12.22
2022-11-06T12:48:05.352Z,12.22
2022-11-06T12:49:04.273Z,12.21
2022-11-06T12:50:04.092Z,12.21
2022-11-06T12:51:04.285Z,12.32
2022-11-06T12:52:05.132Z,12.39
2022-11-06T12:53:06.561Z,12.45
2022-11-06T12:54:05.133Z,12.55
2022-11-06T12:55:04.263Z,12.51
2022-11-06T12:56:05.082Z,12.54
2022-11-06T12:57:04.332Z,12.60
2022-11-06T12:58:03.433Z,12.65
2022-11-06T12:59:04.164Z,12.71
2022-11-06T13:00:04.056Z,12.72
2022-11-06T13:01:04.256Z,12.65
2022-11-06T13:02:05.189Z,12.58
2022-11-06T13:03:04.116Z,12.43
2022-11-06T13:04:04.262Z,12.40
2022-11-06T13:05:03.981Z,12.38
2022-11-06T13:06:03.331Z,12.36
2022-11-06T13:07:04.122Z,12.28
2022-11-06T13:08:04.113Z,12.20
2022-11-06T13:09:04.373Z,12.18
2022-11-06T13:10:05.143Z,12.28
2022-11-06T13:11:03.933Z,12.35
2022-11-06T13:12:04.082Z,12.36
2022-11-06T13:13:04.113Z,12.45
2022-11-06T13:14:04.758Z,12.43
2022-11-06T13:15:03.892Z,12.45
2022-11-06T13:16:04.075Z,12.51
2022-11-06T13:17:04.146Z,12.50
2022-11-06T13:18:04.023Z,12.54
2022-11-06T13:19:04.052Z,12.54
2022-11-06T13:20:03.803Z,12.43
2022-11-06T13:21:04.975Z,12.33
2022-11-06T13:22:03.842Z,12.38
2022-11-06T13:23:04.912Z,12.33
2022-11-06T13:24:04.792Z,12.27
2022-11-06T13:25:04.953Z,12.18
2022-11-06T13:26:03.732Z,12.17
2022-11-06T13:27:03.975Z,12.13
2022-11-06T13:28:03.842Z,12.14
2022-11-06T13:29:03.902Z,12.14
2022-11-06T13:30:03.806Z,12.06
2022-11-06T13:31:03.873Z,12.09
2022-11-06T13:32:03.872Z,12.13
2022-11-06T13:33:03.908Z,12.17
2022-11-06T13:34:03.042Z,12.18
2022-11-06T13:35:04.604Z,12.17
2022-11-06T13:36:03.780Z,12.20
2022-11-06T13:37:02.982Z,12.17
2022-11-06T13:38:03.842Z,12.15
2022-11-06T13:39:03.622Z,12.21
2022-11-06T13:40:02.942Z,12.18
2022-11-06T13:41:03.967Z,12.15
2022-11-06T13:42:03.792Z,12.17
2022-11-06T13:43:04.652Z,12.06
2022-11-06T13:44:04.806Z,12.03
2022-11-06T13:45:03.664Z,11.97